createdAt,value
2018-09-21T00:00:11.262Z,0.00
2018-09-21T00:01:11.236Z,0.00
2018-09-21T00:02:11.221Z,0.00
2018-09-21T00:03:11.187Z,0.00
2018-09-21T00:04:11.161Z,0.00
2018-09-21T00:05:11.141Z,0.00
2018-09-21T00:06:11.121Z,0.00
2018-09-21T00:07:11.088Z,0.00
2018-09-21T00:21:32.414Z,0.00
2018-09-21T00:22:31.886Z,0.00
2018-09-21T00:23:31.859Z,0.00
2018-09-21T00:24:31.846Z,0.00
2018-09-21T00:25:31.807Z,0.00
2018-09-21T00:26:31.781Z,0.00
2018-09-21T00:27:31.757Z,0.00
2018-09-21T00:28:31.734Z,0.00
2018-09-21T00:29:31.709Z,0.00
2018-09-21T00:30:31.680Z,0.00
2018-09-21T00:31:31.666Z,0.00
2018-09-21T00:32:31.632Z,0.00
2018-09-21T00:33:31.605Z,0.00
2018-09-21T00:34:31.582Z,0.00
2018-09-21T00:35:31.559Z,0.00
2018-09-21T00:36:31.530Z,0.00
2018-09-21T00:37:31.506Z,0.00
2018-09-21T00:38:31.479Z,0.00
2018-09-21T00:39:31.457Z,0.00
2018-09-21T00:40:31.430Z,0.00
2018-09-21T00:41:31.406Z,0.00
2018-09-21T00:42:31.380Z,0.00
2018-09-21T00:43:31.355Z,0.00
2018-09-21T00:44:31.334Z,0.00
2018-09-21T00:45:31.457Z,0.00
2018-09-21T00:46:31.283Z,0.00
2018-09-21T00:47:31.255Z,0.00
2018-09-21T00:48:31.234Z,0.00
2018-09-21T00:49:31.206Z,0.00
2018-09-21T00:50:31.185Z,0.00
2018-09-21T00:51:31.167Z,0.00
2018-09-21T00:52:31.132Z,0.00
2018-09-21T00:53:31.108Z,0.00
2018-09-21T00:54:31.080Z,0.00
2018-09-21T00:55:31.056Z,0.00
2018-09-21T00:56:31.032Z,0.00
2018-09-21T00:57:31.008Z,0.00
2018-09-21T00:58:30.981Z,0.00
2018-09-21T00:59:30.956Z,0.00
2018-09-21T01:00:30.931Z,0.00
2018-09-21T01:01:30.907Z,0.00
2018-09-21T01:02:30.881Z,0.00
2018-09-21T01:03:30.856Z,0.00
2018-09-21T01:04:30.832Z,0.00
2018-09-21T01:05:30.807Z,0.00
2018-09-21T01:06:30.781Z,0.00
2018-09-21T01:07:30.763Z,0.00
2018-09-21T01:08:30.733Z,0.00
2018-09-21T01:09:30.711Z,0.00
2018-09-21T01:10:30.682Z,0.00
2018-09-21T01:11:30.656Z,0.00
2018-09-21T01:12:30.637Z,0.00
2018-09-21T01:13:30.607Z,0.00
2018-09-21T01:14:30.581Z,0.00
2018-09-21T01:15:30.566Z,0.00
2018-09-21T01:16:30.531Z,0.00
2018-09-21T01:17:30.508Z,0.00
2018-09-21T01:18:30.481Z,0.00
2018-09-21T01:19:30.459Z,0.00
2018-09-21T01:20:30.433Z,0.00
2018-09-21T01:21:30.412Z,0.00
2018-09-21T01:22:30.388Z,0.00
2018-09-21T01:23:30.376Z,0.00
2018-09-21T01:24:30.332Z,0.00
2018-09-21T01:25:30.307Z,0.00
2018-09-21T01:26:30.281Z,0.00
2018-09-21T01:27:30.707Z,0.00
2018-09-21T01:28:30.233Z,0.00
2018-09-21T01:29:30.208Z,0.00
2018-09-21T01:30:30.181Z,0.00
2018-09-21T01:31:30.159Z,0.00
2018-09-21T01:32:30.133Z,0.00
2018-09-21T01:33:30.112Z,0.00
2018-09-21T01:34:30.081Z,0.00
2018-09-21T01:35:30.057Z,0.00
2018-09-21T01:36:30.044Z,0.00
2018-09-21T01:37:30.007Z,0.00
2018-09-21T01:38:29.981Z,0.00
2018-09-21T01:39:29.956Z,0.00
2018-09-21T01:40:29.932Z,0.00
2018-09-21T01:41:29.907Z,0.00
2018-09-21T01:42:29.879Z,0.00
2018-09-21T01:43:29.856Z,0.00
2018-09-21T01:44:29.831Z,0.00
2018-09-21T01:45:29.806Z,0.00
2018-09-21T01:46:29.788Z,0.00
2018-09-21T01:47:29.756Z,0.00
2018-09-21T01:48:29.740Z,0.00
2018-09-21T01:49:29.707Z,0.00
2018-09-21T01:50:29.734Z,0.00
2018-09-21T01:51:29.659Z,0.00
2018-09-21T01:52:29.630Z,0.00
2018-09-21T01:53:29.605Z,0.00
2018-09-21T01:54:29.579Z,0.00
2018-09-21T01:55:29.554Z,0.00
2018-09-21T01:56:29.531Z,0.00
2018-09-21T01:57:29.504Z,0.00
2018-09-21T01:58:29.479Z,0.00
2018-09-21T01:59:29.454Z,0.00
2018-09-21T02:00:29.429Z,0.00
2018-09-21T02:01:29.405Z,0.00
2018-09-21T02:02:29.379Z,0.00
2018-09-21T02:03:29.353Z,0.00
2018-09-21T02:04:29.329Z,0.00
2018-09-21T02:05:29.304Z,0.00
2018-09-21T02:06:29.281Z,0.00
2018-09-21T02:07:29.267Z,0.00
2018-09-21T02:08:29.239Z,0.00
2018-09-21T02:09:30.285Z,0.00
2018-09-21T02:10:29.180Z,0.00
2018-09-21T02:11:29.154Z,0.00
2018-09-21T02:12:29.129Z,0.00
2018-09-21T02:13:29.104Z,0.00
2018-09-21T02:14:29.077Z,0.00
2018-09-21T02:15:29.067Z,0.00
2018-09-21T02:16:29.027Z,0.00
2018-09-21T02:17:29.008Z,0.00
2018-09-21T02:18:28.979Z,0.00
2018-09-21T02:19:28.953Z,0.00
2018-09-21T02:20:29.227Z,0.00
2018-09-21T02:21:28.902Z,0.00
2018-09-21T02:22:28.877Z,0.00
2018-09-21T02:23:28.870Z,0.00
2018-09-21T02:24:28.829Z,0.00
2018-09-21T02:25:28.806Z,0.00
2018-09-21T02:26:28.830Z,0.00
2018-09-21T02:27:28.751Z,0.00
2018-09-21T02:28:28.727Z,0.00
2018-09-21T02:29:28.705Z,0.00
2018-09-21T02:30:28.682Z,0.00
2018-09-21T02:31:28.651Z,0.00
2018-09-21T02:32:28.919Z,0.00
2018-09-21T02:33:28.606Z,0.00
2018-09-21T02:34:28.577Z,0.00
2018-09-21T02:35:28.561Z,0.00
2018-09-21T02:36:28.528Z,0.00
2018-09-21T02:37:28.504Z,0.00
2018-09-21T02:38:28.479Z,0.00
2018-09-21T02:39:28.453Z,0.00
2018-09-21T02:40:28.428Z,0.00
2018-09-21T02:41:28.468Z,0.00
2018-09-21T02:42:28.580Z,0.00
2018-09-21T02:43:28.353Z,0.00
2018-09-21T02:44:28.530Z,0.00
2018-09-21T02:45:28.506Z,0.00
2018-09-21T02:46:28.278Z,0.00
2018-09-21T02:47:28.254Z,0.00
2018-09-21T02:48:28.432Z,0.00
2018-09-21T02:49:28.203Z,0.00
2018-09-21T02:50:28.644Z,0.00
2018-09-21T02:51:28.153Z,0.00
2018-09-21T02:52:28.139Z,0.00
2018-09-21T02:53:28.104Z,0.00
2018-09-21T02:54:28.079Z,0.00
2018-09-21T02:55:28.054Z,0.00
2018-09-21T02:56:28.032Z,0.00
2018-09-21T02:57:28.003Z,0.00
2018-09-21T02:58:27.977Z,0.00
2018-09-21T02:59:27.955Z,0.00
2018-09-21T03:00:28.031Z,0.00
2018-09-21T03:01:27.904Z,0.00
2018-09-21T03:02:27.878Z,0.00
2018-09-21T03:03:27.854Z,0.00
2018-09-21T03:04:27.842Z,0.00
2018-09-21T03:05:27.804Z,0.00
2018-09-21T03:06:28.033Z,0.00
2018-09-21T03:07:27.755Z,0.00
2018-09-21T03:08:27.729Z,0.00
2018-09-21T03:09:27.704Z,0.00
2018-09-21T03:10:27.880Z,0.00
2018-09-21T03:11:27.855Z,0.00
2018-09-21T03:12:27.830Z,0.00
2018-09-21T03:13:27.607Z,0.00
2018-09-21T03:14:27.577Z,0.00
2018-09-21T03:15:27.562Z,0.00
2018-09-21T03:16:27.529Z,0.00
2018-09-21T03:17:27.704Z,0.00
2018-09-21T03:18:27.480Z,0.00
2018-09-21T03:20:09.804Z,0.00
2018-09-21T03:21:09.780Z,0.00
2018-09-21T03:22:09.551Z,0.00
2018-09-21T03:23:09.528Z,0.00
2018-09-21T03:24:09.802Z,0.00
2018-09-21T03:25:09.479Z,0.00
2018-09-21T03:26:09.452Z,0.00
2018-09-21T03:27:09.425Z,0.00
2018-09-21T03:28:09.403Z,0.00
2018-09-21T03:29:09.375Z,0.00
2018-09-21T03:30:09.359Z,0.00
2018-09-21T03:31:09.326Z,0.00
2018-09-21T03:32:09.300Z,0.00
2018-09-21T03:33:09.280Z,0.00
2018-09-21T03:34:09.249Z,0.00
2018-09-21T03:35:09.279Z,0.00
2018-09-21T03:36:09.200Z,0.00
2018-09-21T03:37:09.176Z,0.00
2018-09-21T03:38:09.152Z,0.00
2018-09-21T03:39:09.123Z,0.00
2018-09-21T03:40:09.103Z,0.00
2018-09-21T03:41:09.080Z,0.00
2018-09-21T03:42:09.048Z,0.00
2018-09-21T03:43:09.027Z,0.00
2018-09-21T03:44:08.999Z,0.00
2018-09-21T03:45:08.972Z,0.00
2018-09-21T03:46:08.956Z,0.00
2018-09-21T03:47:08.973Z,0.00
2018-09-21T03:48:08.896Z,0.00
2018-09-21T03:49:08.870Z,0.00
2018-09-21T03:50:08.847Z,0.00
2018-09-21T03:51:08.822Z,0.00
2018-09-21T03:52:08.798Z,0.00
2018-09-21T03:53:08.771Z,0.00
2018-09-21T03:54:08.746Z,0.00
2018-09-21T03:55:08.724Z,0.00
2018-09-21T03:56:08.696Z,0.00
2018-09-21T03:57:08.671Z,0.00
2018-09-21T03:58:08.645Z,0.00
2018-09-21T03:59:08.627Z,0.00
2018-09-21T04:00:08.596Z,0.00
2018-09-21T04:01:08.583Z,0.00
2018-09-21T04:02:08.545Z,0.00
2018-09-21T04:03:08.527Z,0.00
2018-09-21T04:04:08.494Z,0.00
2018-09-21T04:05:08.469Z,0.00
2018-09-21T04:06:08.450Z,0.00
2018-09-21T04:07:08.419Z,0.00
2018-09-21T04:08:08.394Z,0.00
2018-09-21T04:09:08.370Z,0.00
2018-09-21T04:10:08.344Z,0.00
2018-09-21T04:11:08.324Z,0.00
2018-09-21T04:12:08.294Z,0.00
2018-09-21T04:13:08.274Z,0.00
2018-09-21T04:14:08.252Z,0.00
2018-09-21T04:15:08.218Z,0.00
2018-09-21T04:16:08.194Z,0.00
2018-09-21T04:17:08.171Z,0.00
2018-09-21T04:18:08.143Z,0.00
2018-09-21T04:19:08.122Z,0.00
2018-09-21T04:20:08.096Z,0.00
2018-09-21T04:21:08.069Z,0.00
2018-09-21T04:22:08.044Z,0.00
2018-09-21T04:23:08.121Z,0.00
2018-09-21T04:24:07.994Z,0.00
2018-09-21T04:25:07.967Z,0.00
2018-09-21T04:26:07.944Z,0.00
2018-09-21T04:27:07.922Z,0.00
2018-09-21T04:28:07.894Z,0.00
2018-09-21T04:29:07.869Z,0.00
2018-09-21T04:30:07.845Z,0.00
2018-09-21T04:31:07.819Z,0.00
2018-09-21T04:32:07.796Z,0.00
2018-09-21T04:33:07.769Z,0.00
2018-09-21T04:34:07.744Z,0.00
2018-09-21T04:35:07.720Z,0.00
2018-09-21T04:36:07.734Z,0.00
2018-09-21T04:37:07.671Z,0.00
2018-09-21T04:38:07.649Z,0.00
2018-09-21T04:39:07.976Z,0.00
2018-09-21T04:40:07.594Z,0.00
2018-09-21T04:41:07.570Z,0.00
2018-09-21T04:42:07.545Z,0.00
2018-09-21T04:43:07.519Z,0.00
2018-09-21T04:44:07.497Z,0.00
2018-09-21T04:45:07.724Z,0.00
2018-09-21T04:46:07.446Z,0.00
2018-09-21T04:47:07.425Z,0.00
2018-09-21T04:48:07.397Z,0.00
2018-09-21T04:49:07.372Z,0.00
2018-09-21T04:50:07.348Z,5.63
2018-09-21T04:51:07.322Z,5.63
2018-09-21T04:52:07.301Z,5.63
2018-09-21T04:53:07.274Z,5.63
2018-09-21T04:54:07.248Z,5.63
2018-09-21T04:55:07.226Z,11.25
2018-09-21T04:56:07.208Z,11.25
2018-09-21T04:57:07.174Z,11.25
2018-09-21T04:58:07.150Z,16.88
2018-09-21T04:59:07.128Z,16.88
2018-09-21T05:00:07.101Z,16.88
2018-09-21T05:01:07.076Z,22.50
2018-09-21T05:02:07.059Z,22.50
2018-09-21T05:03:07.028Z,22.50
2018-09-21T05:04:49.356Z,22.50
2018-09-21T05:05:49.129Z,28.13
2018-09-21T05:06:49.107Z,28.13
2018-09-21T05:07:49.081Z,33.75
2018-09-21T05:08:49.056Z,39.38
2018-09-21T05:10:31.384Z,45.00
2018-09-21T05:11:31.157Z,50.63
2018-09-21T05:12:31.134Z,56.25
2018-09-21T05:13:32.279Z,67.50
2018-09-21T05:14:31.086Z,67.50
2018-09-21T05:15:31.070Z,67.50
2018-09-21T05:16:31.035Z,78.75
2018-09-21T05:17:31.017Z,84.38
2018-09-21T05:18:30.992Z,95.63
2018-09-21T05:19:31.262Z,101.25
2018-09-21T05:20:30.938Z,106.88
2018-09-21T05:21:33.738Z,112.50
2018-09-21T05:22:31.095Z,123.75
2018-09-21T05:23:30.864Z,129.38
2018-09-21T05:24:30.841Z,129.38
2018-09-21T05:25:30.817Z,129.38
2018-09-21T05:26:30.792Z,123.75
2018-09-21T05:27:30.780Z,123.75
2018-09-21T05:28:30.743Z,129.38
2018-09-21T05:29:30.720Z,135.00
2018-09-21T05:30:30.706Z,140.63
2018-09-21T05:31:30.872Z,140.63
2018-09-21T05:32:30.647Z,140.63
2018-09-21T05:33:30.624Z,146.25
2018-09-21T05:34:30.653Z,146.25
2018-09-21T05:35:30.575Z,146.25
2018-09-21T05:36:30.551Z,146.25
2018-09-21T05:37:30.529Z,157.50
2018-09-21T05:38:30.504Z,163.13
2018-09-21T05:39:30.479Z,168.75
2018-09-21T05:40:30.456Z,185.63
2018-09-21T05:41:30.431Z,196.88
2018-09-21T05:42:30.408Z,208.13
2018-09-21T05:43:30.385Z,202.50
2018-09-21T05:44:30.361Z,219.38
2018-09-21T05:45:30.345Z,241.88
2018-09-21T05:46:30.315Z,258.75
2018-09-21T05:47:30.288Z,264.38
2018-09-21T05:48:30.470Z,275.63
2018-09-21T05:50:12.597Z,298.13
2018-09-21T05:51:12.597Z,292.50
2018-09-21T05:52:12.347Z,309.38
2018-09-21T05:53:12.535Z,326.25
2018-09-21T05:54:12.304Z,343.13
2018-09-21T05:55:12.292Z,354.38
2018-09-21T05:56:12.278Z,371.25
2018-09-21T05:57:12.229Z,388.13
2018-09-21T05:58:12.247Z,405.00
2018-09-21T05:59:12.184Z,399.38
2018-09-21T06:00:12.160Z,421.88
2018-09-21T06:01:12.137Z,472.50
2018-09-21T06:02:12.211Z,495.00
2018-09-21T06:03:12.093Z,551.25
2018-09-21T06:04:12.067Z,506.25
2018-09-21T06:05:12.044Z,500.63
2018-09-21T06:06:12.234Z,517.50
2018-09-21T06:07:12.002Z,540.00
2018-09-21T06:08:11.979Z,506.25
2018-09-21T06:09:11.953Z,466.88
2018-09-21T06:10:11.937Z,478.13
2018-09-21T06:11:11.905Z,483.75
2018-09-21T06:12:11.887Z,506.25
2018-09-21T06:13:11.911Z,500.63
2018-09-21T06:14:11.840Z,506.25
2018-09-21T06:15:11.816Z,523.13
2018-09-21T06:16:11.794Z,635.63
2018-09-21T06:17:11.774Z,753.75
2018-09-21T06:18:11.752Z,787.50
2018-09-21T06:19:11.978Z,748.13
2018-09-21T06:20:12.185Z,708.75
2018-09-21T09:19:13.908Z,905.63
2018-09-21T09:58:52.453Z,466.88
2018-09-21T09:59:52.227Z,433.13
2018-09-21T10:00:52.204Z,393.75
2018-09-21T10:01:52.181Z,438.75
2018-09-21T10:02:52.164Z,495.00
2018-09-21T10:03:52.168Z,523.13
2018-09-21T10:04:52.114Z,545.63
2018-09-21T10:05:52.086Z,630.00
2018-09-21T10:06:52.064Z,691.88
2018-09-21T10:07:52.040Z,748.13
2018-09-21T10:08:52.021Z,776.25
2018-09-21T10:09:51.997Z,781.88
2018-09-21T10:10:51.972Z,838.13
2018-09-21T10:11:51.948Z,838.13
2018-09-21T10:12:51.926Z,793.13
2018-09-21T10:13:51.902Z,748.13
2018-09-21T10:14:51.885Z,641.25
2018-09-21T10:15:51.858Z,630.00
2018-09-21T10:16:51.837Z,607.50
2018-09-21T10:17:51.817Z,556.88
2018-09-21T10:18:51.789Z,568.13
2018-09-21T10:19:51.766Z,562.50
2018-09-21T10:20:51.746Z,568.13
2018-09-21T10:21:51.726Z,601.88
2018-09-21T10:22:51.702Z,590.63
2018-09-21T10:32:17.710Z,669.38
2018-09-21T10:36:06.293Z,663.75
2018-09-21T10:37:06.076Z,624.38
2018-09-21T10:38:06.049Z,579.38
2018-09-21T10:39:06.065Z,568.13
2018-09-21T10:40:06.102Z,562.50
2018-09-21T10:41:05.975Z,523.13
2018-09-21T10:43:39.139Z,506.25
2018-09-21T10:44:39.118Z,528.75
2018-09-21T10:45:06.093Z,500.63
2018-09-21T10:47:05.839Z,427.50
2018-09-21T10:48:05.816Z,393.75
2018-09-21T10:50:05.771Z,281.25
2018-09-21T10:51:05.756Z,202.50
2018-09-21T10:58:00.971Z,95.63
2018-09-21T10:59:00.745Z,123.75
2018-09-21T11:00:03.545Z,73.13
2018-09-21T11:01:00.724Z,84.38
2018-09-21T11:02:43.028Z,118.13
2018-09-21T11:03:42.803Z,174.38
2018-09-21T11:04:42.778Z,213.75
2018-09-21T11:05:42.754Z,208.13
2018-09-21T11:06:42.729Z,225.00
2018-09-21T11:07:42.703Z,219.38
2018-09-21T11:08:42.679Z,208.13
2018-09-21T11:09:43.058Z,208.13
2018-09-21T11:10:42.835Z,225.00
2018-09-21T11:11:42.603Z,225.00
2018-09-21T11:12:42.780Z,213.75
2018-09-21T11:13:42.552Z,208.13
2018-09-21T11:16:49.178Z,225.00
2018-09-21T11:19:55.608Z,196.88
2018-09-21T11:20:55.574Z,196.88
2018-09-21T11:21:55.550Z,225.00
2018-09-21T11:22:55.319Z,270.00
2018-09-21T11:23:55.293Z,298.13
2018-09-21T11:24:55.468Z,309.38
2018-09-21T11:25:55.239Z,298.13
2018-09-21T11:26:55.416Z,286.88
2018-09-21T11:28:37.540Z,371.25
2018-09-21T11:29:37.514Z,343.13
2018-09-21T11:30:37.492Z,320.63
2018-09-21T11:31:37.458Z,320.63
2018-09-21T11:32:37.433Z,360.00
2018-09-21T11:33:37.201Z,405.00
2018-09-21T11:34:37.176Z,444.38
2018-09-21T11:35:37.148Z,461.25
2018-09-21T11:36:37.121Z,517.50
2018-09-21T11:38:19.445Z,686.25
2018-09-21T11:39:19.218Z,731.25
2018-09-21T11:40:19.189Z,686.25
2018-09-21T11:41:19.163Z,618.75
2018-09-21T11:42:19.136Z,568.13
2018-09-21T11:43:19.108Z,528.75
2018-09-21T11:44:19.091Z,483.75
2018-09-21T11:45:19.057Z,466.88
2018-09-21T11:46:19.286Z,427.50
2018-09-21T11:47:19.152Z,410.63
2018-09-21T11:48:18.979Z,410.63
2018-09-21T11:51:25.599Z,444.38
2018-09-21T11:52:25.391Z,421.88
2018-09-21T11:53:25.350Z,388.13
2018-09-21T11:54:25.319Z,399.38
2018-09-21T11:55:25.290Z,466.88
2018-09-21T11:56:25.264Z,489.38
2018-09-21T11:57:25.239Z,472.50
2018-09-21T11:58:25.213Z,483.75
2018-09-21T11:59:25.189Z,506.25
2018-09-21T12:00:25.160Z,483.75
2018-09-21T12:01:25.132Z,433.13
2018-09-21T12:02:25.109Z,421.88
2018-09-21T12:03:25.080Z,444.38
2018-09-21T12:04:25.055Z,511.88
2018-09-21T12:05:25.027Z,590.63
2018-09-21T12:06:25.002Z,635.63
2018-09-21T12:09:31.627Z,601.88
2018-09-21T12:10:31.427Z,663.75
2018-09-21T12:11:31.371Z,776.25
2018-09-21T12:12:31.345Z,956.25
2018-09-21T12:13:31.319Z,1130.63
2018-09-21T12:15:13.644Z,1057.50
2018-09-21T12:16:13.419Z,871.88
2018-09-21T12:18:37.891Z,691.88
2018-09-21T12:19:37.662Z,680.63
2018-09-21T12:20:37.635Z,635.63
2018-09-21T12:22:22.586Z,545.63
2018-09-21T12:23:19.734Z,551.25
2018-09-21T12:24:19.716Z,590.63
2018-09-21T12:25:19.683Z,568.13
2018-09-21T12:26:19.809Z,556.88
2018-09-21T12:27:19.629Z,579.38
2018-09-21T12:28:19.604Z,562.50
2018-09-21T12:29:19.589Z,506.25
2018-09-21T12:30:19.591Z,540.00
2018-09-21T12:31:19.527Z,607.50
2018-09-21T12:32:19.502Z,675.00
2018-09-21T12:44:34.130Z,421.88
2018-09-21T12:45:33.840Z,433.13
2018-09-21T12:46:33.816Z,371.25
2018-09-21T12:47:33.787Z,331.88
2018-09-21T12:48:33.761Z,360.00
2018-09-21T12:49:33.734Z,360.00
2018-09-21T12:50:33.736Z,382.50
2018-09-21T12:51:33.682Z,540.00
2018-09-21T12:52:33.656Z,495.00
2018-09-21T12:53:33.635Z,461.25
2018-09-21T12:54:33.613Z,427.50
2018-09-21T12:55:33.577Z,433.13
2018-09-21T12:56:33.589Z,466.88
2018-09-21T12:57:33.536Z,517.50
2018-09-21T12:58:33.588Z,540.00
2018-09-21T12:59:33.472Z,511.88
2018-09-21T13:00:33.446Z,472.50
2018-09-21T13:01:33.419Z,556.88
2018-09-21T13:02:33.441Z,562.50
2018-09-21T13:03:33.367Z,607.50
2018-09-21T13:04:33.341Z,736.88
2018-09-21T13:05:33.313Z,815.63
2018-09-21T13:06:33.288Z,866.25
2018-09-21T13:07:33.262Z,815.63
2018-09-21T13:08:33.237Z,686.25
2018-09-21T13:09:33.209Z,675.00
2018-09-21T13:10:33.184Z,573.75
2018-09-21T13:11:33.160Z,585.00
2018-09-21T13:12:33.133Z,652.50
2018-09-21T13:13:33.105Z,731.25
2018-09-21T13:14:33.234Z,753.75
2018-09-21T13:15:33.054Z,736.88
2018-09-21T13:16:33.037Z,714.38
2018-09-21T13:17:33.204Z,708.75
2018-09-21T13:18:32.979Z,658.13
2018-09-21T13:19:33.202Z,545.63
2018-09-21T13:20:32.933Z,500.63
2018-09-21T13:21:32.900Z,511.88
2018-09-21T13:22:32.877Z,511.88
2018-09-21T13:23:32.852Z,545.63
2018-09-21T13:24:32.827Z,686.25
2018-09-21T13:25:32.801Z,736.88
2018-09-21T13:26:32.779Z,669.38
2018-09-21T13:27:32.745Z,624.38
2018-09-21T13:28:32.921Z,658.13
2018-09-21T13:29:32.695Z,675.00
2018-09-21T13:30:32.668Z,635.63
2018-09-21T13:31:32.652Z,596.25
2018-09-21T13:32:32.619Z,618.75
2018-09-21T13:33:32.595Z,663.75
2018-09-21T13:34:32.571Z,708.75
2018-09-21T13:35:32.540Z,748.13
2018-09-21T13:36:32.517Z,759.38
2018-09-21T13:37:32.493Z,748.13
2018-09-21T13:38:32.464Z,736.88
2018-09-21T13:39:32.440Z,725.63
2018-09-21T13:40:32.414Z,736.88
2018-09-21T13:41:32.391Z,759.38
2018-09-21T13:42:32.364Z,776.25
2018-09-21T13:43:32.337Z,765.00
2018-09-21T13:44:32.524Z,742.50
2018-09-21T13:45:32.294Z,742.50
2018-09-21T13:46:32.261Z,753.75
2018-09-21T13:47:32.236Z,759.38
2018-09-21T13:48:32.418Z,765.00
2018-09-21T13:49:32.184Z,765.00
2018-09-21T13:50:32.160Z,748.13
2018-09-21T13:51:32.136Z,703.13
2018-09-21T13:52:32.110Z,686.25
2018-09-21T13:53:32.086Z,680.63
2018-09-21T13:54:32.061Z,663.75
2018-09-21T13:55:32.185Z,658.13
2018-09-21T13:56:32.016Z,669.38
2018-09-21T13:57:31.982Z,675.00
2018-09-21T13:58:31.960Z,680.63
2018-09-21T13:59:31.934Z,703.13
2018-09-21T14:00:31.908Z,759.38
2018-09-21T14:01:32.133Z,793.13
2018-09-21T14:02:31.858Z,798.75
2018-09-21T14:03:31.837Z,798.75
2018-09-21T14:04:31.809Z,810.00
2018-09-21T14:05:31.803Z,810.00
2018-09-21T14:06:31.757Z,787.50
2018-09-21T14:07:31.733Z,759.38
2018-09-21T14:08:31.708Z,753.75
2018-09-21T14:09:31.693Z,770.63
2018-09-21T14:10:31.657Z,776.25
2018-09-21T14:11:31.632Z,753.75
2018-09-21T14:12:31.607Z,753.75
2018-09-21T14:13:31.882Z,742.50
2018-09-21T14:14:31.556Z,708.75
2018-09-21T14:15:31.532Z,663.75
2018-09-21T14:16:31.507Z,618.75
2018-09-21T14:17:31.481Z,607.50
2018-09-21T14:18:31.462Z,618.75
2018-09-21T14:19:31.432Z,658.13
2018-09-21T14:20:31.406Z,680.63
2018-09-21T14:21:31.437Z,663.75
2018-09-21T14:22:31.356Z,635.63
2018-09-21T14:23:31.330Z,624.38
2018-09-21T14:24:31.305Z,601.88
2018-09-21T14:25:31.583Z,613.13
2018-09-21T14:26:31.255Z,646.88
2018-09-21T14:27:31.230Z,680.63
2018-09-21T14:28:31.227Z,686.25
2018-09-21T14:29:31.179Z,675.00
2018-09-21T14:30:31.155Z,658.13
2018-09-21T14:31:31.132Z,652.50
2018-09-21T14:32:31.105Z,658.13
2018-09-21T14:33:31.079Z,669.38
2018-09-21T14:34:31.063Z,641.25
2018-09-21T14:35:31.028Z,601.88
2018-09-21T14:36:31.004Z,579.38
2018-09-21T14:37:31.028Z,585.00
2018-09-21T14:38:30.957Z,596.25
2018-09-21T14:39:30.931Z,556.88
2018-09-21T14:40:30.903Z,489.38
2018-09-21T14:41:30.902Z,483.75
2018-09-21T14:42:30.851Z,500.63
2018-09-21T14:43:30.827Z,500.63
2018-09-21T14:44:30.801Z,478.13
2018-09-21T14:45:30.776Z,461.25
2018-09-21T14:46:30.751Z,466.88
2018-09-21T14:47:30.726Z,489.38
2018-09-21T14:48:30.701Z,500.63
2018-09-21T14:49:30.678Z,523.13
2018-09-21T14:50:30.659Z,545.63
2018-09-21T14:51:30.623Z,545.63
2018-09-21T14:52:30.599Z,534.38
2018-09-21T14:53:30.573Z,545.63
2018-09-21T14:54:30.553Z,551.25
2018-09-21T14:55:30.573Z,607.50
2018-09-21T14:56:30.497Z,691.88
2018-09-21T14:57:30.480Z,613.13
2018-09-21T14:58:30.446Z,630.00
2018-09-21T14:59:30.420Z,652.50
2018-09-21T15:00:30.396Z,669.38
2018-09-21T15:01:30.374Z,697.50
2018-09-21T15:02:30.345Z,686.25
2018-09-21T15:03:30.320Z,658.13
2018-09-21T15:04:30.295Z,669.38
2018-09-21T15:05:30.271Z,753.75
2018-09-21T15:06:30.269Z,618.75
2018-09-21T15:07:30.218Z,596.25
2018-09-21T15:08:30.259Z,613.13
2018-09-21T15:09:30.171Z,736.88
2018-09-21T15:10:30.146Z,855.00
2018-09-21T15:11:30.119Z,916.88
2018-09-21T15:12:30.096Z,1023.75
2018-09-21T15:13:30.069Z,821.25
2018-09-21T15:14:30.045Z,1113.75
2018-09-21T15:15:30.020Z,1164.38
2018-09-21T15:16:30.033Z,1546.88
2018-09-21T15:17:30.005Z,1490.63
2018-09-21T15:18:30.150Z,1192.50
2018-09-21T15:19:29.921Z,1670.63
2018-09-21T15:20:29.896Z,1530.00
2018-09-21T15:21:29.872Z,2041.88
2018-09-21T15:22:29.847Z,2019.38
2018-09-21T15:23:29.822Z,1839.38
2018-09-21T15:24:29.801Z,1980.00
2018-09-21T15:25:29.774Z,1951.88
2018-09-21T15:26:29.751Z,1940.63
2018-09-21T15:27:29.727Z,1946.25
2018-09-21T15:28:29.703Z,1963.13
2018-09-21T15:29:29.888Z,1901.25
2018-09-21T15:30:29.657Z,1468.13
2018-09-21T15:38:31.704Z,528.75
2018-09-21T15:39:31.127Z,461.25
2018-09-21T15:40:31.103Z,376.88
2018-09-21T15:41:31.079Z,320.63
2018-09-21T15:42:31.054Z,281.25
2018-09-21T15:43:31.114Z,258.75
2018-09-21T15:44:31.013Z,258.75
2018-09-21T15:45:31.001Z,326.25
2018-09-21T15:46:30.957Z,461.25
2018-09-21T15:47:30.936Z,731.25
2018-09-21T15:48:31.059Z,1580.63
2018-09-21T15:49:30.884Z,1580.63
2018-09-21T15:50:30.859Z,1468.13
2018-09-21T15:51:30.834Z,1366.88
2018-09-21T15:52:30.810Z,1321.88
2018-09-21T15:53:30.788Z,1327.50
2018-09-21T15:54:30.761Z,1248.75
2018-09-21T15:55:30.747Z,1153.13
2018-09-21T15:56:30.728Z,1130.63
2018-09-21T15:57:30.690Z,1108.13
2018-09-21T15:58:30.662Z,1085.63
2018-09-21T15:59:30.636Z,1074.38
2018-09-21T16:00:30.613Z,1057.50
2018-09-21T16:01:30.587Z,1001.25
2018-09-21T16:02:30.562Z,967.50
2018-09-21T16:03:30.539Z,973.13
2018-09-21T16:04:30.513Z,961.88
2018-09-21T16:05:30.488Z,933.75
2018-09-21T16:06:30.463Z,916.88
2018-09-21T16:07:30.439Z,905.63
2018-09-21T16:08:30.413Z,905.63
2018-09-21T16:09:30.388Z,877.50
2018-09-21T16:10:30.364Z,866.25
2018-09-21T16:11:30.339Z,849.38
2018-09-21T16:12:30.316Z,832.50
2018-09-21T16:13:30.289Z,804.38
2018-09-21T16:14:30.347Z,804.38
2018-09-21T16:15:30.239Z,776.25
2018-09-21T16:16:30.217Z,765.00
2018-09-21T16:17:30.189Z,765.00
2018-09-21T16:18:30.167Z,742.50
2018-09-21T16:19:30.140Z,725.63
2018-09-21T16:20:30.115Z,697.50
2018-09-21T16:21:30.090Z,691.88
2018-09-21T16:22:30.066Z,686.25
2018-09-21T16:23:30.041Z,669.38
2018-09-21T16:24:30.017Z,646.88
2018-09-21T16:25:29.993Z,641.25
2018-09-21T16:26:29.975Z,630.00
2018-09-21T16:27:29.942Z,601.88
2018-09-21T16:28:29.917Z,579.38
2018-09-21T16:29:29.893Z,573.75
2018-09-21T16:30:29.868Z,556.88
2018-09-21T16:31:29.842Z,528.75
2018-09-21T16:32:29.821Z,528.75
2018-09-21T16:33:29.792Z,495.00
2018-09-21T16:34:29.769Z,478.13
2018-09-21T16:35:29.745Z,466.88
2018-09-21T16:36:29.747Z,450.00
2018-09-21T16:37:29.695Z,438.75
2018-09-21T16:38:29.671Z,433.13
2018-09-21T16:39:29.643Z,410.63
2018-09-21T16:40:29.637Z,393.75
2018-09-21T16:41:29.596Z,388.13
2018-09-21T16:42:29.570Z,371.25
2018-09-21T16:43:29.544Z,354.38
2018-09-21T16:44:29.564Z,337.50
2018-09-21T16:45:29.497Z,326.25
2018-09-21T16:46:29.474Z,309.38
2018-09-21T16:47:29.456Z,292.50
2018-09-21T16:48:29.421Z,281.25
2018-09-21T16:49:29.398Z,264.38
2018-09-21T16:50:29.371Z,213.75
2018-09-21T16:51:29.355Z,146.25
2018-09-21T16:52:29.391Z,140.63
2018-09-21T16:53:29.297Z,135.00
2018-09-21T16:54:29.474Z,123.75
2018-09-21T16:55:29.245Z,118.13
2018-09-21T16:56:29.220Z,118.13
2018-09-21T16:57:29.245Z,112.50
2018-09-21T16:58:29.171Z,106.88
2018-09-21T16:59:29.147Z,101.25
2018-09-21T17:00:29.118Z,101.25
2018-09-21T17:01:29.092Z,95.63
2018-09-21T17:02:29.074Z,90.00
2018-09-21T17:03:29.097Z,84.38
2018-09-21T17:04:29.068Z,78.75
2018-09-21T17:05:28.991Z,73.13
2018-09-21T17:06:28.968Z,73.13
2018-09-21T17:07:28.938Z,67.50
2018-09-21T17:08:28.916Z,61.88
2018-09-21T17:09:28.887Z,61.88
2018-09-21T17:10:29.064Z,56.25
2018-09-21T17:11:28.956Z,50.63
2018-09-21T17:12:28.809Z,50.63
2018-09-21T17:13:28.785Z,45.00
2018-09-21T17:14:28.758Z,45.00
2018-09-21T17:15:28.734Z,39.38
2018-09-21T17:16:28.713Z,39.38
2018-09-21T17:17:28.679Z,33.75
2018-09-21T17:18:28.654Z,33.75
2018-09-21T17:19:28.629Z,28.13
2018-09-21T17:20:28.600Z,28.13
2018-09-21T17:21:28.575Z,22.50
2018-09-21T17:22:28.753Z,22.50
2018-09-21T17:23:28.723Z,16.88
2018-09-21T17:24:28.496Z,16.88
2018-09-21T17:25:28.519Z,16.88
2018-09-21T17:26:28.444Z,11.25
2018-09-21T17:27:28.418Z,11.25
2018-09-21T17:28:28.597Z,11.25
2018-09-21T17:29:28.367Z,11.25
2018-09-21T17:30:28.337Z,5.63